Guangchang, China
Current Conditions -  °F | °C
As of 12:00 PM on Sunday 21 Dec 2014 (Local Time) from ZSAM Reporting Station
Few Clouds Few Clouds  
Wind Chill: 63°   Ceiling: Unl
Heat Index: 63°   Visibility: 6mi
Dew Point: 43°   Wind: 9mph
Humidity: 48%   Direction: 20°NNE
Pressure: 30.27"   Gusts: NA
Location:  26.85°N, 116.33°E
Report Text: ZSAM 210400Z 02004MPS 350V060 9999 FEW030 17/06 Q1025 NOSIG
Loading
Personal Weather Stations






























Interactive Weather Map New forecast layout! Learn more

10-Day Weather Forecast

Advertisements
Track Severe Weather on mobile